»·PEaware :: CRAZE14 KEND-KEND

CRAZE14 :: KEND-KEND

FLIGHT INFORMATION

Flight Status: Arrived
Operator: Unknown
More flights by this operator :: More flights under this callsign
Pilot: Giovanny P. (21649)
Aircraft: BEECH AIRCRAFT T-6A TEXAN
(TEX2)
More flights by this aircraft type
Origin: KEND Vance AFB
United States
Destination: KEND Vance AFB
United States
More flights between these airports :: More routes between these airports
Route: +DF
File this flight plan on PilotEdge
Remarks:
Altitude:
(Current/Filed)
6,000ft
Speed:
(Current/Filed)
0kts
Departed: 14-Aug-19 08:33 AM
Arrived: 14-Aug-19 09:40 AM
Distance/Time
Traveled:
0nm/1:07
Distance/Time
To Go:
Arrived

Flight Plot

Page will automatically refresh every two minutes.

Flight plan parsing failed; only flown route is shown


Map Options




Map Legend


Flown Route
Filed Route
Departure Airport
Arrival Airport
Navaid (VOR, NDB)
Fix

Horizontal Profiles

Position Reports

Time Latitude Longitude Heading Altitude Ground
Speed
14-Aug-19 08:22 36.336917 -97.908889 0 1292ft 0kts
14-Aug-19 08:23 36.336769 -97.909223 178 1292ft 4kts
14-Aug-19 08:24 36.334745 -97.909174 139 1293ft 8kts
14-Aug-19 08:25 36.334773 -97.908856 4 1293ft 0kts
14-Aug-19 08:26 36.334245 -97.909225 179 1292ft 11kts
14-Aug-19 08:27 36.331236 -97.909272 192 1293ft 9kts
14-Aug-19 08:28 36.330757 -97.912679 232 1294ft 0kts
14-Aug-19 08:29 36.330757 -97.912679 232 1294ft 0kts
14-Aug-19 08:30 36.330757 -97.912679 232 1294ft 0kts
14-Aug-19 08:31 36.330399 -97.913240 241 1294ft 5kts
14-Aug-19 08:32 36.333848 -97.914732 2 1291ft 91kts
14-Aug-19 08:33 36.381465 -97.914001 1 1962ft 224kts
14-Aug-19 08:34 36.437119 -97.911815 4 5019ft 213kts
14-Aug-19 08:35 36.504454 -97.906434 4 5021ft 246kts
14-Aug-19 08:36 36.572947 -97.905614 7 5022ft 246kts
14-Aug-19 08:37 36.641175 -97.894222 5 5042ft 245kts
14-Aug-19 08:38 36.709701 -97.893779 2 3725ft 250kts
14-Aug-19 08:39 36.738462 -97.953916 272 2279ft 243kts
14-Aug-19 08:40 36.734163 -98.033885 232 2457ft 218kts
14-Aug-19 08:41 36.688830 -98.073071 181 2291ft 208kts
14-Aug-19 08:42 36.651472 -98.096360 270 1820ft 162kts
14-Aug-19 08:43 36.676457 -98.125745 2 1869ft 127kts
14-Aug-19 08:44 36.708035 -98.124797 7 1684ft 112kts
14-Aug-19 08:45 36.739832 -98.123356 3 1581ft 141kts
14-Aug-19 08:47 36.770155 -98.088218 90 1879ft 239kts
14-Aug-19 08:48 36.718823 -98.074103 179 2306ft 216kts
14-Aug-19 08:49 36.666728 -98.085339 269 2321ft 202kts
14-Aug-19 08:50 36.698254 -98.124986 359 2241ft 196kts
14-Aug-19 08:51 36.727931 -98.108604 175 2310ft 163kts
14-Aug-19 08:52 36.722133 -98.124166 2 1238ft 135kts
14-Aug-19 08:53 36.763139 -98.122475 1 1775ft 208kts
14-Aug-19 08:54 36.749779 -98.074443 179 2281ft 208kts
14-Aug-19 08:55 36.692474 -98.074176 179 2319ft 204kts
14-Aug-19 08:56 36.668914 -98.112572 321 2241ft 189kts
14-Aug-19 08:57 36.717924 -98.124608 4 2320ft 191kts
14-Aug-19 08:58 36.719896 -98.105493 180 2345ft 135kts
14-Aug-19 08:59 36.724233 -98.124073 3 1211ft 116kts
14-Aug-19 09:00 36.747314 -98.109070 142 2315ft 139kts
14-Aug-19 09:01 36.708617 -98.108777 215 2176ft 127kts
14-Aug-19 09:02 36.728339 -98.123917 4 1176ft 96kts
14-Aug-19 09:03 36.741765 -98.107162 178 2381ft 160kts
14-Aug-19 09:04 36.708719 -98.116713 287 1862ft 128kts
14-Aug-19 09:05 36.736573 -98.123524 4 1491ft 126kts
14-Aug-19 09:06 36.771279 -98.095978 91 2340ft 218kts
14-Aug-19 09:07 36.766225 -98.023690 96 5080ft 228kts
14-Aug-19 09:08 36.749715 -97.941563 112 6149ft 262kts
14-Aug-19 09:09 36.720407 -97.863454 141 5934ft 255kts
14-Aug-19 09:09 36.673915 -97.820060 142 6098ft 249kts
14-Aug-19 09:11 36.593977 -97.803367 174 5990ft 255kts
14-Aug-19 09:11 36.535662 -97.798611 175 6139ft 252kts
14-Aug-19 09:12 36.465150 -97.794429 178 6102ft 252kts
14-Aug-19 09:14 36.382734 -97.785608 176 5992ft 253kts
14-Aug-19 09:14 36.326468 -97.802264 188 5070ft 250kts
14-Aug-19 09:15 36.257680 -97.815051 184 4986ft 252kts
14-Aug-19 09:16 36.203359 -97.857695 263 2776ft 261kts
14-Aug-19 09:17 36.234882 -97.907489 356 2297ft 203kts
14-Aug-19 09:18 36.290453 -97.914557 359 2294ft 204kts
14-Aug-19 09:19 36.343862 -97.907142 83 2303ft 176kts
14-Aug-19 09:20 36.314377 -97.907279 279 2011ft 127kts
14-Aug-19 09:21 36.344455 -97.914760 1 1577ft 148kts
14-Aug-19 09:22 36.382262 -97.886007 89 1894ft 240kts
14-Aug-19 09:23 36.344835 -97.854970 179 2335ft 210kts
14-Aug-19 09:24 36.286264 -97.854131 178 2287ft 212kts
14-Aug-19 09:25 36.286921 -97.908729 310 2243ft 204kts
14-Aug-19 09:26 36.340408 -97.914115 23 2600ft 182kts
14-Aug-19 09:27 36.321106 -97.897845 231 2197ft 123kts
14-Aug-19 09:28 36.339271 -97.914820 359 1462ft 125kts
14-Aug-19 09:29 36.377109 -97.890110 86 1777ft 239kts
14-Aug-19 09:30 36.344371 -97.854943 181 2376ft 206kts
14-Aug-19 09:31 36.286108 -97.853636 177 2336ft 209kts
14-Aug-19 09:32 36.287591 -97.906378 316 2306ft 198kts
14-Aug-19 09:33 36.340925 -97.913945 19 2496ft 195kts
14-Aug-19 09:34 36.323745 -97.897159 216 2271ft 123kts
14-Aug-19 09:35 36.338559 -97.914834 2 1361ft 119kts
14-Aug-19 09:36 36.332269 -97.895748 176 2267ft 154kts
14-Aug-19 09:37 36.329819 -97.914650 2 1301ft 107kts
14-Aug-19 09:38 36.352203 -97.914644 0 1276ft 68kts
14-Aug-19 09:39 36.354150 -97.911155 181 1275ft 15kts
14-Aug-19 09:40 36.349163 -97.909125 176 1274ft 24kts
14-Aug-19 09:41 36.342201 -97.909180 176 1284ft 18kts

Navigation Log

Ident Type
Flight plan parsing failed, navigation log unavailable